Time;durP1;ratioP1;P1;durP2;ratioP2;P2;SDS_P1;SDS_P2;PMS_P1;PMS_P2;Temp;Humidity;BMP_temperature;BMP_pressure;BME280_temperature;BME280_humidity;BME280_pressure;Samples;Min_cycle;Max_cycle;Signal;HPM_P1;HPM_P2
2023/07/20 00:00:06;;;;;;;3.63;1.30;;;;;;;15.02;100.00;100829.25;5031153;28;20111;-64
2023/07/20 00:02:33;;;;;;;6.38;1.33;;;;;;;14.92;100.00;100828.91;5033299;28;20053;-64
2023/07/20 00:05:00;;;;;;;4.20;1.52;;;;;;;14.96;100.00;100837.50;5032812;28;20053;-64
2023/07/20 00:07:27;;;;;;;5.57;1.80;;;;;;;15.07;100.00;100837.78;5032145;28;20557;-64
2023/07/20 00:09:53;;;;;;;5.05;1.73;;;;;;;14.95;100.00;100830.53;5029019;28;20320;-64
2023/07/20 00:12:20;;;;;;;4.63;1.60;;;;;;;15.05;100.00;100826.47;5033101;28;20045;-64
2023/07/20 00:14:46;;;;;;;7.47;2.10;;;;;;;14.90;100.00;100827.28;5032074;28;20061;-64
2023/07/20 00:17:13;;;;;;;7.13;2.17;;;;;;;15.00;100.00;100823.22;5032259;28;20056;-64
2023/07/20 00:19:40;;;;;;;5.10;1.88;;;;;;;15.06;100.00;100820.25;5028497;28;20041;-64
2023/07/20 00:22:06;;;;;;;4.28;1.60;;;;;;;15.05;100.00;100822.94;5030995;28;20049;-64
2023/07/20 00:24:33;;;;;;;4.40;1.60;;;;;;;15.20;100.00;100819.47;5033425;28;20057;-64
2023/07/20 00:27:00;;;;;;;4.75;1.50;;;;;;;15.17;100.00;100806.44;5032839;28;20071;-64
2023/07/20 00:29:27;;;;;;;4.72;1.70;;;;;;;15.17;100.00;100817.00;5031451;28;20049;-64
2023/07/20 00:31:54;;;;;;;4.68;1.55;;;;;;;15.28;100.00;100816.41;5031983;28;20057;-64
2023/07/20 00:34:21;;;;;;;5.22;1.80;;;;;;;15.31;100.00;100811.81;5023275;28;20045;-64
2023/07/20 00:36:49;;;;;;;5.63;1.42;;;;;;;15.29;100.00;100807.56;5032604;28;20053;-64
2023/07/20 00:39:16;;;;;;;4.75;1.50;;;;;;;15.29;100.00;100811.03;5030936;28;20049;-64
2023/07/20 00:41:42;;;;;;;4.72;1.70;;;;;;;15.35;100.00;100826.53;5032211;28;20056;-64
2023/07/20 00:44:09;;;;;;;4.82;1.70;;;;;;;15.33;100.00;100811.72;5032598;28;20061;-64
2023/07/20 00:46:36;;;;;;;4.65;1.55;;;;;;;15.19;100.00;100802.81;5031798;28;20045;-64
2023/07/20 00:49:03;;;;;;;4.57;1.70;;;;;;;15.38;100.00;100815.78;5031627;28;20045;-64
2023/07/20 00:51:30;;;;;;;4.20;1.60;;;;;;;15.45;100.00;100820.75;5013405;28;20046;-64
2023/07/20 00:53:57;;;;;;;4.15;1.50;;;;;;;15.37;100.00;100818.53;5032421;28;20434;-64
2023/07/20 00:56:24;;;;;;;6.15;1.85;;;;;;;15.31;100.00;100817.06;5032158;28;20103;-64
2023/07/20 00:58:52;;;;;;;6.88;1.73;;;;;;;15.35;100.00;100825.66;5031705;28;20051;-64
2023/07/20 01:01:19;;;;;;;4.63;1.80;;;;;;;15.28;100.00;100817.28;5029417;28;20054;-64
2023/07/20 01:03:45;;;;;;;4.95;1.70;;;;;;;15.14;100.00;100809.28;5030422;28;20041;-64
2023/07/20 01:06:18;;;;;;;4.57;1.80;;;;;;;15.18;100.00;100813.44;5031300;28;20505;-65
2023/07/20 01:09:13;;;;;;;8.35;1.80;;;;;;;15.27;100.00;100820.00;5031137;28;20041;-63
2023/07/20 01:12:32;;;;;;;5.25;1.80;;;;;;;15.22;100.00;100816.75;5027677;28;20068;-64
2023/07/20 01:14:59;;;;;;;8.27;2.08;;;;;;;15.08;100.00;100812.25;5011542;28;20052;-63
2023/07/20 01:17:26;;;;;;;4.65;1.60;;;;;;;14.94;100.00;100798.06;5030517;28;20088;-63
2023/07/20 01:19:52;;;;;;;6.22;1.70;;;;;;;14.89;100.00;100805.34;5030859;28;20049;-63
2023/07/20 01:22:24;;;;;;;5.28;1.50;;;;;;;14.86;100.00;100813.44;5030815;28;20049;-63
2023/07/20 01:25:07;;;;;;;3.95;1.40;;;;;;;14.87;100.00;100807.19;5031577;28;20057;-63
2023/07/20 01:28:03;;;;;;;6.32;1.77;;;;;;;14.99;100.00;100808.31;5030684;28;20049;-63
2023/07/20 01:30:41;;;;;;;5.15;1.90;;;;;;;15.02;100.00;100807.31;4985243;28;20073;-63
2023/07/20 01:33:11;;;;;;;4.25;1.52;;;;;;;14.93;100.00;100811.31;5019368;28;20467;-63
2023/07/20 01:35:41;;;;;;;5.00;1.73;;;;;;;15.00;100.00;100810.03;5031339;28;20080;-63
2023/07/20 01:38:09;;;;;;;6.57;1.88;;;;;;;14.98;100.00;100814.56;5026254;28;20057;-63
2023/07/20 01:40:35;;;;;;;5.65;2.20;;;;;;;14.86;100.00;100809.94;5020763;28;20065;-63
2023/07/20 01:43:03;;;;;;;6.47;1.85;;;;;;;14.74;100.00;100814.94;5029532;28;20051;-63
2023/07/20 01:45:29;;;;;;;5.53;2.05;;;;;;;14.74;100.00;100806.19;5030531;28;20049;-63
2023/07/20 01:47:56;;;;;;;6.82;2.40;;;;;;;14.81;100.00;100782.03;5024647;28;20041;-64
2023/07/20 01:50:23;;;;;;;5.72;1.70;;;;;;;14.95;100.00;100798.91;5025005;28;20057;-63
2023/07/20 01:52:51;;;;;;;5.95;2.22;;;;;;;15.04;100.00;100795.75;5012940;28;20403;-63
2023/07/20 01:55:17;;;;;;;6.35;2.22;;;;;;;14.85;100.00;100798.53;5023932;28;20057;-63
2023/07/20 01:57:44;;;;;;;6.95;2.63;;;;;;;14.81;100.00;100797.00;5030736;28;20064;-63
2023/07/20 02:00:12;;;;;;;8.30;3.22;;;;;;;14.79;100.00;100798.88;5025194;28;20381;-63
2023/07/20 02:02:38;;;;;;;8.32;3.08;;;;;;;14.70;100.00;100786.22;5030586;28;20049;-63
2023/07/20 02:05:05;;;;;;;8.13;3.00;;;;;;;14.79;100.00;100789.19;5030873;28;20411;-63
2023/07/20 02:07:33;;;;;;;7.93;3.00;;;;;;;14.78;100.00;100790.13;5030592;28;20049;-63
2023/07/20 02:09:59;;;;;;;9.30;3.00;;;;;;;14.88;100.00;100785.19;5024487;28;20061;-63
2023/07/20 02:12:26;;;;;;;10.27;3.40;;;;;;;14.91;100.00;100792.94;5030172;28;20341;-63
2023/07/20 02:14:52;;;;;;;8.30;2.70;;;;;;;14.93;100.00;100784.94;5030374;28;20060;-63
2023/07/20 02:17:19;;;;;;;7.65;3.00;;;;;;;14.86;100.00;100789.69;5030506;28;20054;-63
2023/07/20 02:19:49;;;;;;;11.75;3.20;;;;;;;14.84;100.00;100788.06;5026958;28;20053;-63
2023/07/20 02:22:16;;;;;;;9.02;3.45;;;;;;;14.95;100.00;100789.19;5026553;28;20049;-63
2023/07/20 02:24:43;;;;;;;6.53;2.20;;;;;;;14.84;100.00;100772.25;5038766;28;20049;-64
2023/07/20 02:27:10;;;;;;;7.38;2.58;;;;;;;14.91;100.00;100785.03;5036555;28;20433;-65
2023/07/20 02:29:37;;;;;;;7.88;2.70;;;;;;;14.77;100.00;100785.78;5023833;28;20137;-63
2023/07/20 02:32:04;;;;;;;7.40;2.60;;;;;;;14.85;100.00;100785.34;5022908;28;20522;-63
2023/07/20 02:34:30;;;;;;;7.10;2.28;;;;;;;14.96;100.00;100784.75;5029875;28;20049;-63
2023/07/20 02:36:58;;;;;;;7.53;2.58;;;;;;;14.85;100.00;100776.59;5030106;28;20049;-63
2023/07/20 02:39:27;;;;;;;9.48;3.08;;;;;;;14.90;100.00;100779.84;5010844;28;20053;-64
2023/07/20 02:41:54;;;;;;;7.65;2.92;;;;;;;14.75;100.00;100781.50;5010593;28;20309;-63
2023/07/20 02:44:21;;;;;;;9.35;3.42;;;;;;;14.76;100.00;100776.16;5025970;28;20045;-63
2023/07/20 02:46:49;;;;;;;11.18;3.60;;;;;;;14.58;100.00;100772.75;5029735;28;20061;-63
2023/07/20 02:49:16;;;;;;;8.90;3.50;;;;;;;14.77;100.00;100780.50;5015455;28;20467;-64
2023/07/20 02:51:43;;;;;;;8.60;3.75;;;;;;;14.66;100.00;100779.38;5028062;28;20403;-65
2023/07/20 02:54:09;;;;;;;12.57;5.07;;;;;;;14.62;100.00;100789.22;5030317;28;20523;-63
2023/07/20 02:56:36;;;;;;;10.13;4.63;;;;;;;14.63;100.00;100769.03;5030016;28;20041;-64
2023/07/20 02:59:02;;;;;;;10.40;3.88;;;;;;;14.62;100.00;100770.78;5029437;28;20399;-63
2023/07/20 03:01:29;;;;;;;10.73;4.93;;;;;;;14.65;100.00;100785.59;5028929;28;20045;-63
2023/07/20 03:03:56;;;;;;;12.50;5.50;;;;;;;14.58;100.00;100785.91;5029670;28;20045;-63
2023/07/20 03:06:23;;;;;;;13.13;6.82;;;;;;;14.51;100.00;100775.75;5030068;28;20801;-64
2023/07/20 03:08:51;;;;;;;13.05;6.40;;;;;;;14.64;100.00;100783.88;5029724;28;20132;-64
2023/07/20 03:11:19;;;;;;;13.43;6.50;;;;;;;14.72;100.00;100793.09;5024265;28;20491;-64
2023/07/20 03:13:46;;;;;;;14.48;7.32;;;;;;;14.67;100.00;100789.00;5028734;28;20045;-64
2023/07/20 03:16:17;;;;;;;14.80;7.15;;;;;;;14.73;100.00;100788.66;5029197;28;20050;-64
2023/07/20 03:18:44;;;;;;;12.27;6.78;;;;;;;14.77;100.00;100791.06;5026056;28;20053;-64
2023/07/20 03:21:11;;;;;;;16.67;8.57;;;;;;;14.56;100.00;100785.13;5019112;28;20414;-64
2023/07/20 03:23:40;;;;;;;14.20;7.90;;;;;;;14.69;100.00;100779.22;5029734;28;20383;-64
2023/07/20 03:26:08;;;;;;;14.00;7.95;;;;;;;14.74;100.00;100779.81;5027261;28;20048;-64
2023/07/20 03:28:36;;;;;;;14.93;8.30;;;;;;;14.75;100.00;100773.59;5033569;28;20080;-64
2023/07/20 03:31:02;;;;;;;15.65;8.65;;;;;;;14.85;100.00;100772.16;5025268;28;20072;-64
2023/07/20 03:33:31;;;;;;;16.13;7.82;;;;;;;14.81;100.00;100774.13;5032563;28;20049;-63
2023/07/20 03:35:58;;;;;;;13.43;7.57;;;;;;;14.72;100.00;100756.19;5034016;28;20511;-64
2023/07/20 03:38:25;;;;;;;15.57;8.65;;;;;;;14.95;100.00;100767.25;5016111;28;20049;-64
2023/07/20 03:40:54;;;;;;;16.55;8.10;;;;;;;14.89;100.00;100779.00;5023119;28;20041;-64
2023/07/20 03:43:22;;;;;;;13.80;7.82;;;;;;;14.88;100.00;100766.75;5033329;28;20064;-64
2023/07/20 03:45:50;;;;;;;12.68;6.75;;;;;;;14.88;100.00;100779.91;5033267;28;20053;-64
2023/07/20 03:48:22;;;;;;;12.02;6.53;;;;;;;14.79;100.00;100770.72;5033387;28;20063;-64
2023/07/20 03:50:50;;;;;;;17.45;9.75;;;;;;;14.89;100.00;100781.63;5020735;28;20141;-64
2023/07/20 03:53:17;;;;;;;15.93;8.98;;;;;;;14.80;100.00;100767.16;5031987;28;20048;-64
2023/07/20 03:55:46;;;;;;;13.95;7.47;;;;;;;14.84;100.00;100767.84;5033082;28;20140;-64
2023/07/20 03:58:13;;;;;;;16.02;8.20;;;;;;;14.93;100.00;100774.41;5032534;28;20059;-64
2023/07/20 04:00:46;;;;;;;21.52;10.52;;;;;;;14.87;100.00;100751.00;5032176;28;20503;-64
2023/07/20 04:03:14;;;;;;;17.35;11.13;;;;;;;14.56;100.00;100752.66;5032939;28;20045;-63
2023/07/20 04:05:41;;;;;;;17.67;10.45;;;;;;;14.73;100.00;100768.44;5033058;28;20384;-64
2023/07/20 04:08:08;;;;;;;18.42;11.70;;;;;;;14.61;100.00;100761.19;5019076;28;20049;-64
2023/07/20 04:10:35;;;;;;;18.38;11.20;;;;;;;14.63;100.00;100761.97;5031368;28;20399;-64
2023/07/20 04:13:01;;;;;;;18.70;12.02;;;;;;;14.66;100.00;100774.09;5032574;28;20045;-64
2023/07/20 04:15:28;;;;;;;20.00;11.80;;;;;;;14.74;100.00;100769.28;5032136;28;20064;-64
2023/07/20 04:17:56;;;;;;;18.25;10.75;;;;;;;14.57;100.00;100770.16;5031905;28;20080;-64
2023/07/20 04:20:23;;;;;;;20.50;11.75;;;;;;;14.55;100.00;100764.97;5020901;28;20060;-64
2023/07/20 04:22:50;;;;;;;20.92;10.73;;;;;;;14.49;100.00;100751.28;5031904;28;20053;-64
2023/07/20 04:25:18;;;;;;;19.33;9.90;;;;;;;14.65;100.00;100781.16;5029877;28;20493;-64
2023/07/20 04:27:44;;;;;;;17.50;10.25;;;;;;;14.61;100.00;100769.94;5045032;28;20445;-63
2023/07/20 04:30:12;;;;;;;16.20;10.18;;;;;;;14.78;100.00;100778.72;5032296;28;20053;-63
2023/07/20 04:32:45;;;;;;;21.58;11.80;;;;;;;14.33;100.00;100746.84;5019092;28;20394;-64
2023/07/20 04:35:35;;;;;;;20.35;11.45;;;;;;;14.58;100.00;100780.66;5031446;28;20111;-64
2023/07/20 04:38:02;;;;;;;19.20;11.18;;;;;;;14.59;100.00;100769.19;5018747;28;20049;-64
2023/07/20 04:40:29;;;;;;;19.70;11.48;;;;;;;14.49;100.00;100777.63;5021889;28;20085;-64
2023/07/20 04:42:55;;;;;;;18.70;10.60;;;;;;;14.49;100.00;100783.75;5023865;28;20472;-64
2023/07/20 04:45:24;;;;;;;20.08;11.93;;;;;;;14.43;100.00;100781.44;5020050;28;20046;-64
2023/07/20 04:47:51;;;;;;;20.60;12.38;;;;;;;14.30;100.00;100781.22;5030853;28;20055;-64
2023/07/20 04:50:17;;;;;;;18.58;12.10;;;;;;;14.40;100.00;100784.25;5022592;28;20132;-64
2023/07/20 04:52:46;;;;;;;17.88;10.75;;;;;;;14.28;100.00;100783.09;5028666;28;20045;-64
2023/07/20 04:55:13;;;;;;;21.48;12.25;;;;;;;14.21;100.00;100768.53;5031887;28;20141;-63
2023/07/20 04:57:39;;;;;;;19.48;10.40;;;;;;;14.16;100.00;100774.03;5032122;28;20483;-64
2023/07/20 05:00:06;;;;;;;16.83;9.90;;;;;;;14.25;100.00;100770.06;5030952;28;20042;-63
2023/07/20 05:02:33;;;;;;;14.75;8.90;;;;;;;14.40;100.00;100768.44;5031665;28;20084;-63
2023/07/20 05:05:01;;;;;;;18.30;10.00;;;;;;;14.39;100.00;100770.19;5031410;28;20199;-63
2023/07/20 05:07:27;;;;;;;17.98;10.55;;;;;;;14.24;100.00;100769.22;5031237;28;20057;-64
2023/07/20 05:09:54;;;;;;;18.38;10.13;;;;;;;14.25;100.00;100777.97;5009655;28;20065;-64
2023/07/20 05:12:21;;;;;;;15.73;8.73;;;;;;;14.46;100.00;100777.78;5030731;28;20049;-64
2023/07/20 05:14:47;;;;;;;16.13;8.88;;;;;;;14.34;100.00;100779.28;5031553;28;20051;-64
2023/07/20 05:17:14;;;;;;;16.83;7.90;;;;;;;14.46;100.00;100778.63;5030253;28;20137;-64
2023/07/20 05:19:41;;;;;;;13.50;7.57;;;;;;;14.53;100.00;100777.38;5027215;28;20061;-64
2023/07/20 05:22:13;;;;;;;15.38;7.78;;;;;;;14.36;100.00;100774.78;5029499;28;20531;-64
2023/07/20 05:24:40;;;;;;;14.45;8.65;;;;;;;14.39;100.00;100780.72;5030725;28;20049;-64
2023/07/20 05:27:07;;;;;;;14.10;7.60;;;;;;;14.42;100.00;100772.69;5030854;28;20053;-64
2023/07/20 05:29:34;;;;;;;16.08;9.25;;;;;;;14.18;100.00;100779.22;5028404;28;20142;-64
2023/07/20 05:32:00;;;;;;;14.50;8.27;;;;;;;14.31;100.00;100785.56;5025944;28;20487;-64
2023/07/20 05:34:27;;;;;;;16.67;8.88;;;;;;;14.16;100.00;100770.56;5038158;28;20209;-64
2023/07/20 05:36:55;;;;;;;17.23;9.00;;;;;;;14.22;100.00;100786.06;5031326;28;20068;-64
2023/07/20 05:39:21;;;;;;;15.30;8.52;;;;;;;14.30;100.00;100772.47;5030221;28;20136;-64
2023/07/20 05:41:48;;;;;;;17.73;9.55;;;;;;;14.44;100.00;100769.97;5029498;28;20046;-64
2023/07/20 05:44:14;;;;;;;18.90;9.80;;;;;;;14.55;100.00;100775.50;5030554;28;20052;-63
2023/07/20 05:46:41;;;;;;;16.45;8.15;;;;;;;14.48;100.00;100763.59;5030064;28;20050;-63
2023/07/20 05:49:23;;;;;;;20.95;8.20;;;;;;;14.61;100.00;100772.59;5029409;28;20056;-64
2023/07/20 05:51:50;;;;;;;14.88;7.68;;;;;;;14.61;100.00;100780.47;5034862;28;20092;-64
2023/07/20 05:54:17;;;;;;;16.17;9.00;;;;;;;14.68;100.00;100781.00;5030981;28;20068;-64
2023/07/20 05:56:46;;;;;;;18.63;8.80;;;;;;;14.57;100.00;100772.78;5006756;28;20151;-64
2023/07/20 05:59:13;;;;;;;16.73;8.32;;;;;;;14.74;100.00;100771.91;5030015;28;20392;-64
2023/07/20 06:01:39;;;;;;;14.75;7.40;;;;;;;14.89;100.00;100762.31;5028135;28;20045;-64
2023/07/20 06:04:06;;;;;;;14.15;7.57;;;;;;;14.83;100.00;100774.03;5035544;28;20458;-64
2023/07/20 06:06:33;;;;;;;11.55;5.70;;;;;;;14.74;100.00;100742.94;5029947;28;20053;-64
2023/07/20 06:09:04;;;;;;;13.68;5.32;;;;;;;15.01;100.00;100777.44;5029168;28;20479;-64
2023/07/20 06:11:31;;;;;;;12.20;5.20;;;;;;;14.94;100.00;100762.91;5029031;28;20057;-64
2023/07/20 06:13:57;;;;;;;10.55;4.78;;;;;;;14.94;100.00;100774.31;5027952;28;20474;-64
2023/07/20 06:16:24;;;;;;;9.65;4.18;;;;;;;15.24;100.00;100762.97;5030878;28;20056;-64
2023/07/20 06:18:51;;;;;;;11.45;4.78;;;;;;;15.50;100.00;100772.03;5028041;28;20053;-64
2023/07/20 06:21:18;;;;;;;9.98;4.43;;;;;;;16.24;100.00;100769.53;5010724;28;20543;-64
2023/07/20 06:23:45;;;;;;;9.45;3.88;;;;;;;16.31;100.00;100779.59;5028488;28;20041;-65
2023/07/20 06:26:11;;;;;;;9.52;3.70;;;;;;;16.51;100.00;100773.09;5027943;28;20053;-64
2023/07/20 06:28:38;;;;;;;10.23;3.85;;;;;;;16.33;100.00;100775.06;5028500;28;20053;-65
2023/07/20 06:31:05;;;;;;;11.00;3.40;;;;;;;15.92;100.00;100778.44;5027221;28;20068;-65
2023/07/20 06:33:31;;;;;;;9.73;3.28;;;;;;;15.94;100.00;100776.53;5028115;28;20090;-66
2023/07/20 06:35:58;;;;;;;9.88;3.20;;;;;;;15.91;100.00;100782.00;5028898;28;20400;-65
2023/07/20 06:38:25;;;;;;;7.60;2.78;;;;;;;15.91;100.00;100778.50;5005133;28;20058;-65
2023/07/20 06:40:55;;;;;;;7.95;2.35;;;;;;;15.83;100.00;100772.81;5020413;28;20053;-64
2023/07/20 06:43:22;;;;;;;11.05;2.72;;;;;;;15.76;100.00;100775.00;5028437;28;20052;-65
2023/07/20 06:45:54;;;;;;;7.28;2.33;;;;;;;15.84;100.00;100777.19;5030790;28;20068;-65
2023/07/20 06:48:22;;;;;;;11.43;2.42;;;;;;;15.17;100.00;100782.72;5029516;28;20487;-64
2023/07/20 06:50:48;;;;;;;9.13;2.53;;;;;;;15.53;100.00;100771.03;5028150;28;20046;-65
2023/07/20 06:53:15;;;;;;;7.90;2.60;;;;;;;15.45;100.00;100770.63;5010810;28;20045;-66
2023/07/20 06:55:42;;;;;;;6.63;1.95;;;;;;;15.60;100.00;100775.00;5029264;28;20135;-65
2023/07/20 06:58:10;;;;;;;5.60;1.80;;;;;;;15.85;100.00;100771.81;5029458;28;20139;-65
2023/07/20 07:00:37;;;;;;;7.63;1.85;;;;;;;15.86;100.00;100764.72;5027652;28;20049;-65
2023/07/20 07:03:03;;;;;;;7.82;1.92;;;;;;;16.06;100.00;100763.53;5033661;28;20483;-65
2023/07/20 07:05:30;;;;;;;8.02;1.98;;;;;;;16.21;100.00;100777.63;5034448;28;20084;-65
2023/07/20 07:08:02;;;;;;;8.38;2.28;;;;;;;16.05;100.00;100775.06;5034207;28;20128;-65
2023/07/20 07:10:29;;;;;;;7.85;1.88;;;;;;;16.47;100.00;100768.09;5028577;28;20406;-66
2023/07/20 07:12:56;;;;;;;7.10;2.33;;;;;;;16.37;100.00;100781.03;5031945;28;20483;-66
2023/07/20 07:15:22;;;;;;;5.43;1.63;;;;;;;16.41;100.00;100773.75;5035675;28;20505;-66
2023/07/20 07:17:49;;;;;;;4.97;1.45;;;;;;;16.52;100.00;100773.97;5035513;28;20041;-65
2023/07/20 07:20:16;;;;;;;8.05;1.75;;;;;;;16.49;100.00;100777.63;5013327;28;20081;-65
2023/07/20 07:22:47;;;;;;;8.35;2.22;;;;;;;16.45;100.00;100785.81;5024326;28;20041;-65
2023/07/20 07:25:15;;;;;;;7.20;2.00;;;;;;;16.29;100.00;100776.22;5021683;28;20104;-65
2023/07/20 07:27:48;;;;;;;8.13;2.13;;;;;;;16.26;100.00;100780.84;5021806;28;20053;-65
2023/07/20 07:30:15;;;;;;;9.20;2.17;;;;;;;16.03;100.00;100776.94;5024802;28;20067;-65
2023/07/20 07:32:42;;;;;;;10.10;2.45;;;;;;;15.97;100.00;100780.81;5029799;28;20045;-65
2023/07/20 07:35:09;;;;;;;7.82;2.35;;;;;;;15.84;100.00;100778.03;5029004;28;20046;-66
2023/07/20 07:37:36;;;;;;;11.52;2.45;;;;;;;15.94;100.00;100767.78;5029535;28;20124;-66
2023/07/20 07:40:22;;;;;;;8.88;2.40;;;;;;;15.98;100.00;100779.00;5024499;28;20046;-66
2023/07/20 07:42:49;;;;;;;9.55;2.50;;;;;;;15.99;100.00;100778.91;5015165;28;20042;-66
2023/07/20 07:45:16;;;;;;;7.55;2.30;;;;;;;15.94;100.00;100759.84;5016785;28;20056;-65
2023/07/20 07:47:43;;;;;;;9.95;2.70;;;;;;;16.38;100.00;100779.22;5033005;28;20048;-66
2023/07/20 07:50:10;;;;;;;8.00;2.53;;;;;;;16.05;100.00;100778.53;5030409;28;20058;-66
2023/07/20 07:52:37;;;;;;;8.70;2.45;;;;;;;15.81;100.00;100772.94;5037150;28;20513;-66
2023/07/20 07:55:04;;;;;;;7.60;2.42;;;;;;;16.20;100.00;100782.06;5036347;28;20053;-66
2023/07/20 07:57:31;;;;;;;6.32;2.30;;;;;;;16.38;100.00;100780.09;5032135;28;20049;-66
2023/07/20 07:59:58;;;;;;;9.50;2.42;;;;;;;16.56;100.00;100777.25;5027194;28;20060;-65
2023/07/20 08:02:24;;;;;;;7.03;2.28;;;;;;;16.58;100.00;100781.50;5028507;28;20056;-66
2023/07/20 08:04:52;;;;;;;8.18;2.80;;;;;;;16.58;100.00;100784.13;5027806;28;20073;-66
2023/07/20 08:07:19;;;;;;;8.82;2.35;;;;;;;16.43;100.00;100772.75;5032223;28;20057;-65
2023/07/20 08:09:45;;;;;;;7.32;2.53;;;;;;;16.71;100.00;100773.66;5039747;28;20060;-66
2023/07/20 08:12:13;;;;;;;8.35;2.83;;;;;;;16.81;100.00;100764.19;5044287;28;20057;-65
2023/07/20 08:14:40;;;;;;;7.10;2.40;;;;;;;16.48;100.00;100768.03;5027611;28;20092;-66
2023/07/20 08:17:06;;;;;;;8.70;2.63;;;;;;;16.61;100.00;100769.88;5035046;28;20152;-66
2023/07/20 08:19:34;;;;;;;7.85;2.85;;;;;;;16.62;100.00;100780.34;5022401;28;20045;-66
2023/07/20 08:22:02;;;;;;;8.98;3.28;;;;;;;16.51;100.00;100770.44;5027499;28;20407;-65
2023/07/20 08:24:29;;;;;;;8.80;2.78;;;;;;;16.72;100.00;100771.88;5029976;28;20057;-66
2023/07/20 08:26:56;;;;;;;9.82;2.78;;;;;;;16.64;100.00;100773.19;5022210;28;20053;-66
2023/07/20 08:29:23;;;;;;;10.95;3.30;;;;;;;16.77;100.00;100769.75;5030237;28;20244;-66
2023/07/20 08:31:50;;;;;;;14.35;3.65;;;;;;;16.42;100.00;100765.75;5025008;28;20834;-65
2023/07/20 08:34:17;;;;;;;9.25;3.22;;;;;;;16.44;100.00;100760.38;5031640;28;20052;-65
2023/07/20 08:36:58;;;;;;;8.65;3.00;;;;;;;16.75;100.00;100776.94;5009518;28;20079;-65
2023/07/20 08:39:25;;;;;;;9.18;3.47;;;;;;;16.94;100.00;100774.03;5037822;28;20045;-65
2023/07/20 08:41:52;;;;;;;11.80;3.88;;;;;;;17.02;100.00;100771.75;5020680;28;20463;-65
2023/07/20 08:44:19;;;;;;;10.73;3.83;;;;;;;16.98;100.00;100767.59;5024250;28;20411;-66
2023/07/20 08:46:47;;;;;;;11.32;3.00;;;;;;;17.08;100.00;100763.41;5024073;28;20050;-65
2023/07/20 08:49:17;;;;;;;9.02;3.30;;;;;;;16.75;100.00;100771.66;5023043;28;20396;-66
2023/07/20 08:51:46;;;;;;;14.68;3.95;;;;;;;17.02;100.00;100769.94;5028833;28;20096;-65
2023/07/20 08:54:14;;;;;;;8.88;3.60;;;;;;;17.08;100.00;100774.81;5029810;28;20056;-65
2023/07/20 08:56:42;;;;;;;11.20;4.50;;;;;;;16.82;100.00;100780.91;5028041;28;20050;-66
2023/07/20 08:59:09;;;;;;;14.52;4.63;;;;;;;16.94;100.00;100779.31;5030735;28;20053;-65
2023/07/20 09:01:38;;;;;;;9.45;4.25;;;;;;;17.00;100.00;100771.00;5031698;28;20554;-65
2023/07/20 09:04:06;;;;;;;10.25;4.82;;;;;;;16.93;100.00;100762.59;5013849;28;20049;-65
2023/07/20 09:06:34;;;;;;;10.88;5.15;;;;;;;16.61;100.00;100775.16;5030334;28;20050;-65
2023/07/20 09:09:01;;;;;;;10.77;5.38;;;;;;;16.45;100.00;100772.63;5030059;28;20072;-66
2023/07/20 09:11:28;;;;;;;12.07;5.57;;;;;;;16.39;100.00;100773.84;5027205;28;20050;-66
2023/07/20 09:14:06;;;;;;;11.40;5.72;;;;;;;16.46;100.00;100774.31;5031110;28;20079;-65
2023/07/20 09:16:47;;;;;;;10.75;4.93;;;;;;;16.81;100.00;100780.06;5023288;28;20047;-65
2023/07/20 09:19:16;;;;;;;14.77;5.20;;;;;;;17.06;100.00;100771.44;5015748;28;20057;-65
2023/07/20 09:21:50;;;;;;;11.52;5.43;;;;;;;16.93;100.00;100786.41;5023728;28;20407;-65
2023/07/20 09:24:20;;;;;;;11.60;5.25;;;;;;;17.17;100.00;100769.91;5016999;28;20057;-65
2023/07/20 09:26:49;;;;;;;15.27;5.93;;;;;;;16.90;100.00;100768.09;5035602;28;20405;-64
2023/07/20 09:29:19;;;;;;;15.38;5.32;;;;;;;16.92;100.00;100758.25;5021323;28;20051;-65
2023/07/20 09:32:03;;;;;;;13.77;6.07;;;;;;;17.11;100.00;100770.31;5021848;28;20147;-65
2023/07/20 09:34:34;;;;;;;14.05;5.75;;;;;;;17.05;100.00;100761.81;5016526;28;20081;-65
2023/07/20 09:37:03;;;;;;;;;;;;;;;17.22;100.00;100770.47;5018464;28;20057;-65
2023/07/20 09:39:31;;;;;;;11.30;5.75;;;;;;;17.27;100.00;100755.97;5024106;28;19931;-65
2023/07/20 09:42:02;;;;;;;11.98;5.38;;;;;;;17.42;100.00;100761.19;5018926;28;20096;-65
2023/07/20 09:44:31;;;;;;;;;;;;;;;17.69;100.00;100771.78;5011055;28;20053;-65
2023/07/20 09:47:03;;;;;;;15.18;6.65;;;;;;;17.37;100.00;100771.25;5021461;28;19948;-65
2023/07/20 09:49:31;;;;;;;14.77;6.63;;;;;;;17.42;100.00;100769.13;5021276;28;20486;-65
2023/07/20 09:52:18;;;;;;;12.63;6.25;;;;;;;17.44;100.00;100772.53;5021633;28;20057;-65
2023/07/20 09:55:09;;;;;;;12.32;6.05;;;;;;;17.37;100.00;100765.94;5016890;28;20052;-65
2023/07/20 09:57:35;;;;;;;14.05;7.35;;;;;;;17.34;100.00;100774.09;5028112;28;20332;-65
2023/07/20 10:00:14;;;;;;;15.25;8.38;;;;;;;17.45;100.00;100771.59;5026489;28;20045;-65
2023/07/20 10:02:45;;;;;;;17.70;8.38;;;;;;;17.39;100.00;100764.91;5028055;28;20410;-65
2023/07/20 10:05:14;;;;;;;16.13;7.40;;;;;;;17.74;100.00;100750.25;5029001;28;20545;-65
2023/07/20 10:07:49;;;;;;;13.77;7.40;;;;;;;18.07;100.00;100754.25;5028706;28;20530;-65
2023/07/20 10:10:18;;;;;;;13.55;7.20;;;;;;;18.36;100.00;100746.91;5026636;28;20049;-64
2023/07/20 10:12:48;;;;;;;13.70;7.05;;;;;;;18.73;100.00;100755.78;5027782;28;20410;-65
2023/07/20 10:15:26;;;;;;;14.63;7.57;;;;;;;18.84;100.00;100767.44;5028627;28;21203;-65
2023/07/20 10:18:34;;;;;;;14.55;7.95;;;;;;;19.14;100.00;100762.59;5022487;28;20049;-65
2023/07/20 10:21:03;;;;;;;16.77;8.00;;;;;;;18.92;100.00;100757.97;4953667;28;20055;-65
2023/07/20 10:23:33;;;;;;;13.50;7.18;;;;;;;19.04;100.00;100753.59;4961115;28;20129;-65
2023/07/20 10:26:02;;;;;;;13.68;6.63;;;;;;;19.17;100.00;100761.50;4988623;28;20049;-65
2023/07/20 10:28:29;;;;;;;14.95;7.88;;;;;;;19.17;100.00;100756.19;5031074;28;20060;-65
2023/07/20 10:30:56;;;;;;;13.93;7.60;;;;;;;19.14;100.00;100751.97;5020694;28;20045;-65
2023/07/20 10:33:24;;;;;;;13.32;7.93;;;;;;;18.93;100.00;100745.59;5017674;28;20050;-65
2023/07/20 10:35:57;;;;;;;13.70;7.70;;;;;;;18.76;100.00;100766.16;5022325;28;20454;-65
2023/07/20 10:38:42;;;;;;;16.17;8.50;;;;;;;18.68;100.00;100759.69;4996617;28;20344;-65
2023/07/20 10:41:24;;;;;;;15.35;7.30;;;;;;;18.93;100.00;100764.16;5014481;28;20578;-65
2023/07/20 10:43:51;;;;;;;13.63;6.93;;;;;;;19.00;100.00;100759.22;5013788;28;20065;-65
2023/07/20 10:46:39;;;;;;;16.33;8.45;;;;;;;19.11;100.00;100765.44;5024322;28;20049;-65
2023/07/20 10:49:08;;;;;;;14.18;7.85;;;;;;;18.10;100.00;100762.84;5027330;28;20062;-65
2023/07/20 10:51:48;;;;;;;15.13;8.18;;;;;;;17.35;100.00;100768.72;5025989;28;20045;-65
2023/07/20 10:54:15;;;;;;;15.68;7.82;;;;;;;17.25;100.00;100768.47;5028247;28;20049;-65
2023/07/20 10:56:43;;;;;;;17.30;7.85;;;;;;;17.06;100.00;100755.56;5026614;28;20085;-65
2023/07/20 10:59:25;;;;;;;15.90;8.00;;;;;;;17.05;100.00;100763.59;5027467;28;20092;-65
2023/07/20 11:01:59;;;;;;;14.98;7.03;;;;;;;17.17;100.00;100751.38;5012916;28;20045;-65
2023/07/20 11:04:40;;;;;;;13.73;7.30;;;;;;;17.22;100.00;100741.34;5027005;28;20084;-65
2023/07/20 11:07:07;;;;;;;14.18;6.93;;;;;;;17.19;100.00;100752.13;5026300;28;20487;-66
2023/07/20 11:09:36;;;;;;;13.18;7.05;;;;;;;17.24;100.00;100763.25;5023445;28;20134;-65
2023/07/20 11:12:13;;;;;;;13.80;6.32;;;;;;;17.03;100.00;100752.28;5008693;28;20487;-65
2023/07/20 11:14:53;;;;;;;12.27;6.40;;;;;;;17.10;100.00;100750.09;5015734;28;20494;-65
2023/07/20 11:17:22;;;;;;;12.00;6.20;;;;;;;16.92;100.00;100749.47;5018544;28;20053;-65
2023/07/20 11:19:49;;;;;;;14.50;6.70;;;;;;;17.14;100.00;100744.50;5023368;28;20427;-65